sensor_id;sensor_type;location;lat;lon;timestamp;P1;durP1;ratioP1;P2;durP2;ratioP2
11996;SDS011;6058;48.704;9.474;2022-08-01T00:02:14;2.25;;;1.92;;
11996;SDS011;6058;48.704;9.474;2022-08-01T00:04:41;2.40;;;1.98;;
11996;SDS011;6058;48.704;9.474;2022-08-01T00:07:08;2.60;;;2.03;;
11996;SDS011;6058;48.704;9.474;2022-08-01T00:09:35;2.00;;;1.80;;
11996;SDS011;6058;48.704;9.474;2022-08-01T00:12:02;2.00;;;1.90;;
11996;SDS011;6058;48.704;9.474;2022-08-01T00:14:32;2.22;;;2.03;;
11996;SDS011;6058;48.704;9.474;2022-08-01T00:16:59;3.33;;;2.17;;
11996;SDS011;6058;48.704;9.474;2022-08-01T00:19:26;3.53;;;2.25;;
11996;SDS011;6058;48.704;9.474;2022-08-01T00:21:53;2.17;;;1.98;;
11996;SDS011;6058;48.704;9.474;2022-08-01T00:24:20;4.70;;;2.00;;
11996;SDS011;6058;48.704;9.474;2022-08-01T00:26:47;2.42;;;2.22;;
11996;SDS011;6058;48.704;9.474;2022-08-01T00:29:14;2.30;;;2.10;;
11996;SDS011;6058;48.704;9.474;2022-08-01T00:31:43;1.90;;;1.75;;
11996;SDS011;6058;48.704;9.474;2022-08-01T00:34:10;4.82;;;1.88;;
11996;SDS011;6058;48.704;9.474;2022-08-01T00:39:13;4.60;;;2.30;;
11996;SDS011;6058;48.704;9.474;2022-08-01T00:41:41;2.30;;;2.10;;
11996;SDS011;6058;48.704;9.474;2022-08-01T00:44:08;2.20;;;1.90;;
11996;SDS011;6058;48.704;9.474;2022-08-01T00:46:35;2.03;;;1.83;;
11996;SDS011;6058;48.704;9.474;2022-08-01T00:49:04;2.83;;;1.93;;
11996;SDS011;6058;48.704;9.474;2022-08-01T00:51:32;2.10;;;1.90;;
11996;SDS011;6058;48.704;9.474;2022-08-01T00:54:00;2.20;;;2.10;;
11996;SDS011;6058;48.704;9.474;2022-08-01T00:56:27;1.75;;;1.65;;
11996;SDS011;6058;48.704;9.474;2022-08-01T00:58:54;2.33;;;2.00;;
11996;SDS011;6058;48.704;9.474;2022-08-01T01:01:22;1.92;;;1.83;;
11996;SDS011;6058;48.704;9.474;2022-08-01T01:03:50;2.08;;;1.80;;
11996;SDS011;6058;48.704;9.474;2022-08-01T01:06:22;1.70;;;1.60;;
11996;SDS011;6058;48.704;9.474;2022-08-01T01:08:58;1.77;;;1.67;;
11996;SDS011;6058;48.704;9.474;2022-08-01T01:11:26;1.58;;;1.48;;
11996;SDS011;6058;48.704;9.474;2022-08-01T01:13:57;1.83;;;1.73;;
11996;SDS011;6058;48.704;9.474;2022-08-01T01:16:26;2.65;;;1.60;;
11996;SDS011;6058;48.704;9.474;2022-08-01T01:18:55;2.10;;;1.80;;
11996;SDS011;6058;48.704;9.474;2022-08-01T01:21:35;2.70;;;1.70;;
11996;SDS011;6058;48.704;9.474;2022-08-01T01:24:09;2.20;;;1.97;;
11996;SDS011;6058;48.704;9.474;2022-08-01T01:26:40;2.37;;;2.17;;
11996;SDS011;6058;48.704;9.474;2022-08-01T01:29:13;2.17;;;1.97;;
11996;SDS011;6058;48.704;9.474;2022-08-01T01:31:44;1.93;;;1.80;;
11996;SDS011;6058;48.704;9.474;2022-08-01T01:34:13;2.47;;;2.00;;
11996;SDS011;6058;48.704;9.474;2022-08-01T01:36:42;3.13;;;1.80;;
11996;SDS011;6058;48.704;9.474;2022-08-01T01:39:11;1.60;;;1.50;;
11996;SDS011;6058;48.704;9.474;2022-08-01T01:41:39;1.80;;;1.70;;
11996;SDS011;6058;48.704;9.474;2022-08-01T01:44:06;2.80;;;2.07;;
11996;SDS011;6058;48.704;9.474;2022-08-01T01:46:36;2.00;;;1.80;;
11996;SDS011;6058;48.704;9.474;2022-08-01T01:49:03;1.93;;;1.73;;
11996;SDS011;6058;48.704;9.474;2022-08-01T01:51:31;2.37;;;1.80;;
11996;SDS011;6058;48.704;9.474;2022-08-01T01:53:59;2.17;;;1.47;;
11996;SDS011;6058;48.704;9.474;2022-08-01T01:56:27;1.70;;;1.60;;
11996;SDS011;6058;48.704;9.474;2022-08-01T01:58:57;3.87;;;1.90;;
11996;SDS011;6058;48.704;9.474;2022-08-01T02:01:26;1.70;;;1.60;;
11996;SDS011;6058;48.704;9.474;2022-08-01T02:03:56;1.50;;;1.40;;
11996;SDS011;6058;48.704;9.474;2022-08-01T02:06:23;1.53;;;1.43;;
11996;SDS011;6058;48.704;9.474;2022-08-01T02:08:53;4.77;;;1.60;;
11996;SDS011;6058;48.704;9.474;2022-08-01T02:11:21;2.70;;;1.70;;
11996;SDS011;6058;48.704;9.474;2022-08-01T02:13:52;2.30;;;1.50;;
11996;SDS011;6058;48.704;9.474;2022-08-01T02:16:21;1.90;;;1.80;;
11996;SDS011;6058;48.704;9.474;2022-08-01T02:18:49;1.70;;;1.60;;
11996;SDS011;6058;48.704;9.474;2022-08-01T02:21:20;1.60;;;1.50;;
11996;SDS011;6058;48.704;9.474;2022-08-01T02:23:50;1.60;;;1.50;;
11996;SDS011;6058;48.704;9.474;2022-08-01T02:26:18;1.53;;;1.43;;
11996;SDS011;6058;48.704;9.474;2022-08-01T02:28:47;1.70;;;1.60;;
11996;SDS011;6058;48.704;9.474;2022-08-01T02:31:17;3.40;;;1.70;;
11996;SDS011;6058;48.704;9.474;2022-08-01T02:33:46;1.63;;;1.50;;
11996;SDS011;6058;48.704;9.474;2022-08-01T02:36:15;1.60;;;1.50;;
11996;SDS011;6058;48.704;9.474;2022-08-01T02:38:44;2.20;;;1.80;;
11996;SDS011;6058;48.704;9.474;2022-08-01T02:41:13;2.33;;;1.60;;
11996;SDS011;6058;48.704;9.474;2022-08-01T02:43:42;1.77;;;1.67;;
11996;SDS011;6058;48.704;9.474;2022-08-01T02:46:11;1.60;;;1.50;;
11996;SDS011;6058;48.704;9.474;2022-08-01T02:48:38;2.43;;;2.00;;
11996;SDS011;6058;48.704;9.474;2022-08-01T02:51:07;2.37;;;1.70;;
11996;SDS011;6058;48.704;9.474;2022-08-01T02:53:36;2.00;;;1.70;;
11996;SDS011;6058;48.704;9.474;2022-08-01T02:56:07;1.73;;;1.63;;
11996;SDS011;6058;48.704;9.474;2022-08-01T02:58:34;2.70;;;1.77;;
11996;SDS011;6058;48.704;9.474;2022-08-01T03:01:02;2.00;;;1.50;;
11996;SDS011;6058;48.704;9.474;2022-08-01T03:03:30;1.47;;;1.40;;
11996;SDS011;6058;48.704;9.474;2022-08-01T03:05:57;2.93;;;2.00;;
11996;SDS011;6058;48.704;9.474;2022-08-01T03:08:25;2.77;;;1.63;;
11996;SDS011;6058;48.704;9.474;2022-08-01T03:10:52;2.37;;;1.73;;
11996;SDS011;6058;48.704;9.474;2022-08-01T03:13:21;1.93;;;1.80;;
11996;SDS011;6058;48.704;9.474;2022-08-01T03:15:49;2.40;;;1.87;;
11996;SDS011;6058;48.704;9.474;2022-08-01T03:18:16;1.90;;;1.80;;
11996;SDS011;6058;48.704;9.474;2022-08-01T03:20:44;1.70;;;1.60;;
11996;SDS011;6058;48.704;9.474;2022-08-01T03:23:12;2.30;;;2.10;;
11996;SDS011;6058;48.704;9.474;2022-08-01T03:25:40;1.47;;;1.37;;
11996;SDS011;6058;48.704;9.474;2022-08-01T03:28:10;2.10;;;1.87;;
11996;SDS011;6058;48.704;9.474;2022-08-01T03:30:40;1.70;;;1.60;;
11996;SDS011;6058;48.704;9.474;2022-08-01T03:33:07;2.07;;;1.97;;
11996;SDS011;6058;48.704;9.474;2022-08-01T03:35:36;2.30;;;1.70;;
11996;SDS011;6058;48.704;9.474;2022-08-01T03:38:04;1.93;;;1.83;;
11996;SDS011;6058;48.704;9.474;2022-08-01T03:40:34;3.10;;;1.90;;
11996;SDS011;6058;48.704;9.474;2022-08-01T03:43:02;2.67;;;2.07;;
11996;SDS011;6058;48.704;9.474;2022-08-01T03:45:34;4.33;;;1.80;;
11996;SDS011;6058;48.704;9.474;2022-08-01T03:48:05;2.03;;;1.83;;
11996;SDS011;6058;48.704;9.474;2022-08-01T03:50:33;2.43;;;1.77;;
11996;SDS011;6058;48.704;9.474;2022-08-01T03:53:01;2.43;;;1.80;;
11996;SDS011;6058;48.704;9.474;2022-08-01T03:55:29;3.87;;;2.20;;
11996;SDS011;6058;48.704;9.474;2022-08-01T03:57:57;1.90;;;1.80;;
11996;SDS011;6058;48.704;9.474;2022-08-01T04:00:24;1.97;;;1.73;;
11996;SDS011;6058;48.704;9.474;2022-08-01T04:02:53;2.10;;;1.70;;
11996;SDS011;6058;48.704;9.474;2022-08-01T04:05:22;2.77;;;1.80;;
11996;SDS011;6058;48.704;9.474;2022-08-01T04:07:50;1.87;;;1.77;;
11996;SDS011;6058;48.704;9.474;2022-08-01T04:10:20;2.73;;;2.00;;
11996;SDS011;6058;48.704;9.474;2022-08-01T04:12:48;1.90;;;1.80;;
11996;SDS011;6058;48.704;9.474;2022-08-01T04:15:15;2.03;;;1.93;;
11996;SDS011;6058;48.704;9.474;2022-08-01T04:17:42;2.67;;;2.20;;
11996;SDS011;6058;48.704;9.474;2022-08-01T04:20:10;3.70;;;1.97;;
11996;SDS011;6058;48.704;9.474;2022-08-01T04:22:38;3.33;;;2.33;;
11996;SDS011;6058;48.704;9.474;2022-08-01T04:25:07;2.50;;;2.30;;
11996;SDS011;6058;48.704;9.474;2022-08-01T04:27:36;2.73;;;1.80;;
11996;SDS011;6058;48.704;9.474;2022-08-01T04:30:23;2.70;;;1.93;;
11996;SDS011;6058;48.704;9.474;2022-08-01T04:32:50;4.73;;;1.93;;
11996;SDS011;6058;48.704;9.474;2022-08-01T04:35:19;1.77;;;1.67;;
11996;SDS011;6058;48.704;9.474;2022-08-01T04:37:48;2.00;;;1.90;;
11996;SDS011;6058;48.704;9.474;2022-08-01T04:40:17;4.73;;;2.50;;
11996;SDS011;6058;48.704;9.474;2022-08-01T04:42:46;3.07;;;1.83;;
11996;SDS011;6058;48.704;9.474;2022-08-01T04:45:15;1.83;;;1.63;;
11996;SDS011;6058;48.704;9.474;2022-08-01T04:47:43;3.33;;;1.90;;
11996;SDS011;6058;48.704;9.474;2022-08-01T04:52:41;1.70;;;1.60;;
11996;SDS011;6058;48.704;9.474;2022-08-01T04:55:10;1.57;;;1.47;;
11996;SDS011;6058;48.704;9.474;2022-08-01T04:57:39;1.60;;;1.50;;
11996;SDS011;6058;48.704;9.474;2022-08-01T05:00:06;2.37;;;2.17;;
11996;SDS011;6058;48.704;9.474;2022-08-01T05:02:34;2.23;;;2.07;;
11996;SDS011;6058;48.704;9.474;2022-08-01T05:05:01;2.00;;;1.90;;
11996;SDS011;6058;48.704;9.474;2022-08-01T05:07:28;3.23;;;2.30;;
11996;SDS011;6058;48.704;9.474;2022-08-01T05:09:55;3.03;;;2.00;;
11996;SDS011;6058;48.704;9.474;2022-08-01T05:12:23;1.97;;;1.87;;
11996;SDS011;6058;48.704;9.474;2022-08-01T05:14:50;4.00;;;1.87;;
11996;SDS011;6058;48.704;9.474;2022-08-01T05:17:18;2.03;;;1.93;;
11996;SDS011;6058;48.704;9.474;2022-08-01T05:19:45;2.33;;;2.20;;
11996;SDS011;6058;48.704;9.474;2022-08-01T05:22:12;2.20;;;2.00;;
11996;SDS011;6058;48.704;9.474;2022-08-01T05:24:39;2.17;;;2.03;;
11996;SDS011;6058;48.704;9.474;2022-08-01T05:27:07;2.83;;;2.47;;
11996;SDS011;6058;48.704;9.474;2022-08-01T05:29:36;3.50;;;2.23;;
11996;SDS011;6058;48.704;9.474;2022-08-01T05:32:03;5.43;;;2.47;;
11996;SDS011;6058;48.704;9.474;2022-08-01T05:34:30;2.60;;;2.07;;
11996;SDS011;6058;48.704;9.474;2022-08-01T05:36:57;2.20;;;2.00;;
11996;SDS011;6058;48.704;9.474;2022-08-01T05:39:24;1.93;;;1.73;;
11996;SDS011;6058;48.704;9.474;2022-08-01T05:41:51;3.93;;;2.40;;
11996;SDS011;6058;48.704;9.474;2022-08-01T05:44:18;2.20;;;2.00;;
11996;SDS011;6058;48.704;9.474;2022-08-01T05:46:47;2.60;;;2.23;;
11996;SDS011;6058;48.704;9.474;2022-08-01T05:49:14;2.60;;;2.40;;
11996;SDS011;6058;48.704;9.474;2022-08-01T05:51:41;3.43;;;2.07;;
11996;SDS011;6058;48.704;9.474;2022-08-01T05:54:08;2.40;;;2.20;;
11996;SDS011;6058;48.704;9.474;2022-08-01T05:56:38;2.67;;;2.33;;
11996;SDS011;6058;48.704;9.474;2022-08-01T05:59:05;2.77;;;2.53;;
11996;SDS011;6058;48.704;9.474;2022-08-01T06:01:33;3.20;;;2.90;;
11996;SDS011;6058;48.704;9.474;2022-08-01T06:04:01;5.20;;;2.63;;
11996;SDS011;6058;48.704;9.474;2022-08-01T06:06:28;2.60;;;2.37;;
11996;SDS011;6058;48.704;9.474;2022-08-01T06:08:56;3.27;;;2.53;;
11996;SDS011;6058;48.704;9.474;2022-08-01T06:11:23;2.63;;;2.33;;
11996;SDS011;6058;48.704;9.474;2022-08-01T06:13:50;4.80;;;2.20;;
11996;SDS011;6058;48.704;9.474;2022-08-01T06:16:18;2.83;;;2.50;;
11996;SDS011;6058;48.704;9.474;2022-08-01T06:18:45;2.75;;;2.55;;
11996;SDS011;6058;48.704;9.474;2022-08-01T06:21:14;3.88;;;2.22;;
11996;SDS011;6058;48.704;9.474;2022-08-01T06:23:41;3.03;;;2.40;;
11996;SDS011;6058;48.704;9.474;2022-08-01T06:26:08;4.07;;;2.30;;
11996;SDS011;6058;48.704;9.474;2022-08-01T06:28:36;4.73;;;2.53;;
11996;SDS011;6058;48.704;9.474;2022-08-01T06:31:03;2.35;;;2.15;;
11996;SDS011;6058;48.704;9.474;2022-08-01T06:33:30;3.00;;;2.53;;
11996;SDS011;6058;48.704;9.474;2022-08-01T06:35:57;2.50;;;2.30;;
11996;SDS011;6058;48.704;9.474;2022-08-01T06:40:54;2.08;;;1.98;;
11996;SDS011;6058;48.704;9.474;2022-08-01T06:43:22;2.22;;;2.05;;
11996;SDS011;6058;48.704;9.474;2022-08-01T06:45:49;2.67;;;2.47;;
11996;SDS011;6058;48.704;9.474;2022-08-01T06:48:16;3.35;;;2.10;;
11996;SDS011;6058;48.704;9.474;2022-08-01T06:50:43;3.13;;;2.17;;
11996;SDS011;6058;48.704;9.474;2022-08-01T06:53:10;2.20;;;2.00;;
11996;SDS011;6058;48.704;9.474;2022-08-01T06:55:38;3.17;;;2.25;;
11996;SDS011;6058;48.704;9.474;2022-08-01T06:58:06;3.40;;;1.70;;
11996;SDS011;6058;48.704;9.474;2022-08-01T07:00:33;2.00;;;1.80;;
11996;SDS011;6058;48.704;9.474;2022-08-01T07:03:00;4.68;;;2.20;;
11996;SDS011;6058;48.704;9.474;2022-08-01T07:05:27;3.38;;;1.92;;
11996;SDS011;6058;48.704;9.474;2022-08-01T07:07:56;4.60;;;1.73;;
11996;SDS011;6058;48.704;9.474;2022-08-01T07:10:23;2.00;;;1.83;;
11996;SDS011;6058;48.704;9.474;2022-08-01T07:12:50;2.20;;;1.60;;
11996;SDS011;6058;48.704;9.474;2022-08-01T07:15:19;4.80;;;4.20;;
11996;SDS011;6058;48.704;9.474;2022-08-01T07:17:51;1.73;;;1.63;;
11996;SDS011;6058;48.704;9.474;2022-08-01T07:20:18;1.88;;;1.65;;
11996;SDS011;6058;48.704;9.474;2022-08-01T07:22:45;1.70;;;1.60;;
11996;SDS011;6058;48.704;9.474;2022-08-01T07:25:13;2.67;;;1.80;;
11996;SDS011;6058;48.704;9.474;2022-08-01T07:27:40;2.13;;;1.60;;
11996;SDS011;6058;48.704;9.474;2022-08-01T07:30:08;1.35;;;1.30;;
11996;SDS011;6058;48.704;9.474;2022-08-01T07:32:36;3.03;;;1.73;;
11996;SDS011;6058;48.704;9.474;2022-08-01T07:35:03;7.63;;;1.70;;
11996;SDS011;6058;48.704;9.474;2022-08-01T07:37:31;3.35;;;1.85;;
11996;SDS011;6058;48.704;9.474;2022-08-01T07:39:58;1.60;;;1.50;;
11996;SDS011;6058;48.704;9.474;2022-08-01T07:42:25;1.67;;;1.58;;
11996;SDS011;6058;48.704;9.474;2022-08-01T07:44:52;1.15;;;1.15;;
11996;SDS011;6058;48.704;9.474;2022-08-01T07:47:23;2.85;;;1.63;;
11996;SDS011;6058;48.704;9.474;2022-08-01T07:49:51;4.85;;;2.03;;
11996;SDS011;6058;48.704;9.474;2022-08-01T07:52:19;2.20;;;1.58;;
11996;SDS011;6058;48.704;9.474;2022-08-01T07:54:46;1.77;;;1.67;;
11996;SDS011;6058;48.704;9.474;2022-08-01T07:57:13;2.20;;;1.73;;
11996;SDS011;6058;48.704;9.474;2022-08-01T07:59:40;2.17;;;1.70;;
11996;SDS011;6058;48.704;9.474;2022-08-01T08:02:07;2.55;;;1.63;;
11996;SDS011;6058;48.704;9.474;2022-08-01T08:04:34;1.45;;;1.35;;
11996;SDS011;6058;48.704;9.474;2022-08-01T08:07:03;1.05;;;1.05;;
11996;SDS011;6058;48.704;9.474;2022-08-01T08:09:30;1.60;;;1.33;;
11996;SDS011;6058;48.704;9.474;2022-08-01T08:11:57;2.05;;;1.88;;
11996;SDS011;6058;48.704;9.474;2022-08-01T08:14:24;2.65;;;1.58;;
11996;SDS011;6058;48.704;9.474;2022-08-01T08:16:51;1.52;;;1.27;;
11996;SDS011;6058;48.704;9.474;2022-08-01T08:19:19;1.48;;;1.42;;
11996;SDS011;6058;48.704;9.474;2022-08-01T08:21:46;1.42;;;1.33;;
11996;SDS011;6058;48.704;9.474;2022-08-01T08:24:14;1.58;;;1.48;;
11996;SDS011;6058;48.704;9.474;2022-08-01T08:26:49;1.70;;;1.60;;
11996;SDS011;6058;48.704;9.474;2022-08-01T08:29:18;1.52;;;1.25;;
11996;SDS011;6058;48.704;9.474;2022-08-01T08:31:45;1.65;;;1.50;;
11996;SDS011;6058;48.704;9.474;2022-08-01T08:34:12;2.72;;;1.85;;
11996;SDS011;6058;48.704;9.474;2022-08-01T08:36:39;4.05;;;1.60;;
11996;SDS011;6058;48.704;9.474;2022-08-01T08:39:07;1.65;;;1.55;;
11996;SDS011;6058;48.704;9.474;2022-08-01T08:41:35;3.58;;;2.20;;
11996;SDS011;6058;48.704;9.474;2022-08-01T08:44:03;1.67;;;1.48;;
11996;SDS011;6058;48.704;9.474;2022-08-01T08:46:30;1.65;;;1.48;;
11996;SDS011;6058;48.704;9.474;2022-08-01T08:48:59;2.03;;;1.92;;
11996;SDS011;6058;48.704;9.474;2022-08-01T08:51:27;1.65;;;1.55;;
11996;SDS011;6058;48.704;9.474;2022-08-01T08:53:57;1.55;;;1.42;;
11996;SDS011;6058;48.704;9.474;2022-08-01T08:56:24;5.25;;;1.90;;
11996;SDS011;6058;48.704;9.474;2022-08-01T08:58:56;5.78;;;2.20;;
11996;SDS011;6058;48.704;9.474;2022-08-01T09:01:23;3.15;;;1.70;;
11996;SDS011;6058;48.704;9.474;2022-08-01T09:03:50;2.13;;;1.52;;
11996;SDS011;6058;48.704;9.474;2022-08-01T09:06:17;2.65;;;1.90;;
11996;SDS011;6058;48.704;9.474;2022-08-01T09:08:45;1.48;;;1.45;;
11996;SDS011;6058;48.704;9.474;2022-08-01T09:11:12;2.45;;;1.60;;
11996;SDS011;6058;48.704;9.474;2022-08-01T09:13:39;1.40;;;1.30;;
11996;SDS011;6058;48.704;9.474;2022-08-01T09:16:07;1.83;;;1.73;;
11996;SDS011;6058;48.704;9.474;2022-08-01T09:18:36;1.70;;;1.60;;
11996;SDS011;6058;48.704;9.474;2022-08-01T09:21:09;1.83;;;1.70;;
11996;SDS011;6058;48.704;9.474;2022-08-01T09:23:38;2.35;;;1.80;;
11996;SDS011;6058;48.704;9.474;2022-08-01T09:26:07;1.83;;;1.70;;
11996;SDS011;6058;48.704;9.474;2022-08-01T09:28:35;3.28;;;1.77;;
11996;SDS011;6058;48.704;9.474;2022-08-01T09:31:05;4.90;;;2.13;;
11996;SDS011;6058;48.704;9.474;2022-08-01T09:33:47;1.98;;;1.75;;
11996;SDS011;6058;48.704;9.474;2022-08-01T09:36:15;3.42;;;2.13;;
11996;SDS011;6058;48.704;9.474;2022-08-01T09:38:42;3.80;;;2.00;;
11996;SDS011;6058;48.704;9.474;2022-08-01T09:41:09;1.90;;;1.80;;
11996;SDS011;6058;48.704;9.474;2022-08-01T09:43:37;2.28;;;1.77;;
11996;SDS011;6058;48.704;9.474;2022-08-01T09:46:05;2.47;;;2.13;;
11996;SDS011;6058;48.704;9.474;2022-08-01T09:48:36;2.38;;;1.60;;
11996;SDS011;6058;48.704;9.474;2022-08-01T09:51:06;2.47;;;2.05;;
11996;SDS011;6058;48.704;9.474;2022-08-01T09:53:40;2.20;;;1.73;;
11996;SDS011;6058;48.704;9.474;2022-08-01T09:56:08;1.70;;;1.60;;
11996;SDS011;6058;48.704;9.474;2022-08-01T09:58:48;2.67;;;2.33;;
11996;SDS011;6058;48.704;9.474;2022-08-01T10:01:15;2.60;;;2.40;;
11996;SDS011;6058;48.704;9.474;2022-08-01T10:03:42;2.28;;;2.08;;
11996;SDS011;6058;48.704;9.474;2022-08-01T10:06:20;2.72;;;2.53;;
11996;SDS011;6058;48.704;9.474;2022-08-01T10:08:48;2.58;;;2.28;;
11996;SDS011;6058;48.704;9.474;2022-08-01T10:11:15;2.50;;;2.30;;
11996;SDS011;6058;48.704;9.474;2022-08-01T10:13:42;2.45;;;2.20;;
11996;SDS011;6058;48.704;9.474;2022-08-01T10:16:10;2.45;;;2.25;;
11996;SDS011;6058;48.704;9.474;2022-08-01T10:18:39;3.17;;;2.53;;
11996;SDS011;6058;48.704;9.474;2022-08-01T10:21:07;3.70;;;2.45;;
11996;SDS011;6058;48.704;9.474;2022-08-01T10:23:36;3.40;;;2.63;;
11996;SDS011;6058;48.704;9.474;2022-08-01T10:26:05;2.75;;;2.40;;
11996;SDS011;6058;48.704;9.474;2022-08-01T10:28:33;3.05;;;2.70;;
11996;SDS011;6058;48.704;9.474;2022-08-01T10:31:01;3.40;;;3.10;;
11996;SDS011;6058;48.704;9.474;2022-08-01T10:33:28;2.90;;;2.70;;
11996;SDS011;6058;48.704;9.474;2022-08-01T10:35:55;3.15;;;2.63;;
11996;SDS011;6058;48.704;9.474;2022-08-01T10:38:24;4.72;;;3.28;;
11996;SDS011;6058;48.704;9.474;2022-08-01T10:40:52;2.90;;;2.60;;
11996;SDS011;6058;48.704;9.474;2022-08-01T10:43:20;4.18;;;2.85;;
11996;SDS011;6058;48.704;9.474;2022-08-01T10:45:47;3.78;;;3.05;;
11996;SDS011;6058;48.704;9.474;2022-08-01T10:48:16;5.30;;;3.13;;
11996;SDS011;6058;48.704;9.474;2022-08-01T10:50:46;3.33;;;3.00;;
11996;SDS011;6058;48.704;9.474;2022-08-01T10:53:15;3.55;;;3.25;;
11996;SDS011;6058;48.704;9.474;2022-08-01T10:55:46;3.50;;;3.20;;
11996;SDS011;6058;48.704;9.474;2022-08-01T10:58:20;3.25;;;2.95;;
11996;SDS011;6058;48.704;9.474;2022-08-01T11:03:32;4.85;;;3.25;;
11996;SDS011;6058;48.704;9.474;2022-08-01T11:06:01;3.78;;;3.47;;
11996;SDS011;6058;48.704;9.474;2022-08-01T11:08:30;4.95;;;3.47;;
11996;SDS011;6058;48.704;9.474;2022-08-01T11:10:59;3.40;;;3.10;;
11996;SDS011;6058;48.704;9.474;2022-08-01T11:16:26;3.10;;;2.90;;
11996;SDS011;6058;48.704;9.474;2022-08-01T11:18:53;3.85;;;3.40;;
11996;SDS011;6058;48.704;9.474;2022-08-01T11:21:21;3.38;;;3.10;;
11996;SDS011;6058;48.704;9.474;2022-08-01T11:23:51;3.70;;;3.40;;
11996;SDS011;6058;48.704;9.474;2022-08-01T11:26:18;3.65;;;3.10;;
11996;SDS011;6058;48.704;9.474;2022-08-01T11:28:46;3.83;;;3.38;;
11996;SDS011;6058;48.704;9.474;2022-08-01T11:31:35;2.92;;;2.63;;
11996;SDS011;6058;48.704;9.474;2022-08-01T11:34:02;4.75;;;3.40;;
11996;SDS011;6058;48.704;9.474;2022-08-01T11:36:29;3.30;;;3.10;;
11996;SDS011;6058;48.704;9.474;2022-08-01T11:39:15;5.47;;;2.70;;
11996;SDS011;6058;48.704;9.474;2022-08-01T11:41:43;3.08;;;2.88;;
11996;SDS011;6058;48.704;9.474;2022-08-01T11:44:12;3.35;;;2.60;;
11996;SDS011;6058;48.704;9.474;2022-08-01T11:46:54;3.63;;;2.70;;
11996;SDS011;6058;48.704;9.474;2022-08-01T11:49:22;2.83;;;2.53;;
11996;SDS011;6058;48.704;9.474;2022-08-01T11:51:56;2.45;;;2.20;;
11996;SDS011;6058;48.704;9.474;2022-08-01T11:54:24;2.97;;;2.67;;
11996;SDS011;6058;48.704;9.474;2022-08-01T11:56:53;3.33;;;2.58;;
11996;SDS011;6058;48.704;9.474;2022-08-01T11:59:21;2.47;;;2.28;;
11996;SDS011;6058;48.704;9.474;2022-08-01T12:01:48;2.35;;;2.15;;
11996;SDS011;6058;48.704;9.474;2022-08-01T12:04:17;4.10;;;2.35;;
11996;SDS011;6058;48.704;9.474;2022-08-01T12:06:45;3.72;;;2.15;;
11996;SDS011;6058;48.704;9.474;2022-08-01T12:09:16;2.58;;;2.10;;
11996;SDS011;6058;48.704;9.474;2022-08-01T12:11:44;2.47;;;2.28;;
11996;SDS011;6058;48.704;9.474;2022-08-01T12:14:15;1.98;;;1.88;;
11996;SDS011;6058;48.704;9.474;2022-08-01T12:16:47;2.28;;;2.10;;
11996;SDS011;6058;48.704;9.474;2022-08-01T12:19:18;2.45;;;1.80;;
11996;SDS011;6058;48.704;9.474;2022-08-01T12:21:45;2.20;;;2.00;;
11996;SDS011;6058;48.704;9.474;2022-08-01T12:24:31;2.28;;;2.08;;
11996;SDS011;6058;48.704;9.474;2022-08-01T12:26:58;2.20;;;2.00;;
11996;SDS011;6058;48.704;9.474;2022-08-01T12:29:35;2.10;;;2.00;;
11996;SDS011;6058;48.704;9.474;2022-08-01T12:32:03;2.58;;;2.38;;
11996;SDS011;6058;48.704;9.474;2022-08-01T12:34:32;3.42;;;2.10;;
11996;SDS011;6058;48.704;9.474;2022-08-01T12:37:00;2.25;;;2.15;;
11996;SDS011;6058;48.704;9.474;2022-08-01T12:39:32;3.35;;;2.30;;
11996;SDS011;6058;48.704;9.474;2022-08-01T12:41:59;2.30;;;2.08;;
11996;SDS011;6058;48.704;9.474;2022-08-01T12:44:27;2.17;;;1.90;;
11996;SDS011;6058;48.704;9.474;2022-08-01T12:46:55;1.90;;;1.80;;
11996;SDS011;6058;48.704;9.474;2022-08-01T12:49:22;1.90;;;1.80;;
11996;SDS011;6058;48.704;9.474;2022-08-01T12:51:51;2.55;;;2.35;;
11996;SDS011;6058;48.704;9.474;2022-08-01T12:54:18;2.47;;;2.25;;
11996;SDS011;6058;48.704;9.474;2022-08-01T12:56:47;2.95;;;2.15;;
11996;SDS011;6058;48.704;9.474;2022-08-01T12:59:21;3.13;;;2.00;;
11996;SDS011;6058;48.704;9.474;2022-08-01T13:01:50;2.22;;;1.90;;
11996;SDS011;6058;48.704;9.474;2022-08-01T13:04:17;2.85;;;2.30;;
11996;SDS011;6058;48.704;9.474;2022-08-01T13:06:45;2.30;;;2.00;;
11996;SDS011;6058;48.704;9.474;2022-08-01T13:09:13;2.28;;;2.08;;
11996;SDS011;6058;48.704;9.474;2022-08-01T13:11:41;2.08;;;1.98;;
11996;SDS011;6058;48.704;9.474;2022-08-01T13:14:08;2.92;;;2.13;;
11996;SDS011;6058;48.704;9.474;2022-08-01T13:16:45;2.00;;;1.90;;
11996;SDS011;6058;48.704;9.474;2022-08-01T13:19:13;1.80;;;1.70;;
11996;SDS011;6058;48.704;9.474;2022-08-01T13:21:52;1.90;;;1.80;;
11996;SDS011;6058;48.704;9.474;2022-08-01T13:24:26;2.20;;;2.00;;
11996;SDS011;6058;48.704;9.474;2022-08-01T13:26:54;4.55;;;2.05;;
11996;SDS011;6058;48.704;9.474;2022-08-01T13:29:31;1.95;;;1.85;;
11996;SDS011;6058;48.704;9.474;2022-08-01T13:31:59;2.30;;;2.10;;
11996;SDS011;6058;48.704;9.474;2022-08-01T13:34:30;2.10;;;1.90;;
11996;SDS011;6058;48.704;9.474;2022-08-01T13:36:57;2.40;;;1.92;;
11996;SDS011;6058;48.704;9.474;2022-08-01T13:39:27;2.13;;;1.92;;
11996;SDS011;6058;48.704;9.474;2022-08-01T13:42:07;1.95;;;1.85;;
11996;SDS011;6058;48.704;9.474;2022-08-01T13:44:37;2.15;;;1.80;;
11996;SDS011;6058;48.704;9.474;2022-08-01T13:47:05;1.50;;;1.40;;
11996;SDS011;6058;48.704;9.474;2022-08-01T13:49:34;1.55;;;1.50;;
11996;SDS011;6058;48.704;9.474;2022-08-01T13:52:02;1.63;;;1.52;;
11996;SDS011;6058;48.704;9.474;2022-08-01T13:54:35;2.88;;;1.63;;
11996;SDS011;6058;48.704;9.474;2022-08-01T13:57:02;1.92;;;1.50;;
11996;SDS011;6058;48.704;9.474;2022-08-01T13:59:30;1.80;;;1.70;;
11996;SDS011;6058;48.704;9.474;2022-08-01T14:01:57;4.10;;;1.70;;
11996;SDS011;6058;48.704;9.474;2022-08-01T14:04:27;2.17;;;1.73;;
11996;SDS011;6058;48.704;9.474;2022-08-01T14:06:54;1.70;;;1.60;;
11996;SDS011;6058;48.704;9.474;2022-08-01T14:09:22;1.70;;;1.60;;
11996;SDS011;6058;48.704;9.474;2022-08-01T14:11:51;2.50;;;1.63;;
11996;SDS011;6058;48.704;9.474;2022-08-01T14:14:19;1.88;;;1.70;;
11996;SDS011;6058;48.704;9.474;2022-08-01T14:16:46;2.40;;;2.03;;
11996;SDS011;6058;48.704;9.474;2022-08-01T14:19:13;2.38;;;1.80;;
11996;SDS011;6058;48.704;9.474;2022-08-01T14:21:41;4.50;;;2.22;;
11996;SDS011;6058;48.704;9.474;2022-08-01T14:24:08;2.83;;;1.65;;
11996;SDS011;6058;48.704;9.474;2022-08-01T14:26:36;2.00;;;1.90;;
11996;SDS011;6058;48.704;9.474;2022-08-01T14:29:08;2.80;;;1.65;;
11996;SDS011;6058;48.704;9.474;2022-08-01T14:31:38;3.25;;;1.77;;
11996;SDS011;6058;48.704;9.474;2022-08-01T14:34:05;2.90;;;1.70;;
11996;SDS011;6058;48.704;9.474;2022-08-01T14:36:33;2.10;;;1.58;;
11996;SDS011;6058;48.704;9.474;2022-08-01T14:39:01;2.38;;;1.35;;
11996;SDS011;6058;48.704;9.474;2022-08-01T14:41:28;1.60;;;1.50;;
11996;SDS011;6058;48.704;9.474;2022-08-01T14:43:55;1.67;;;1.50;;
11996;SDS011;6058;48.704;9.474;2022-08-01T14:46:25;1.30;;;1.30;;
11996;SDS011;6058;48.704;9.474;2022-08-01T14:48:52;2.50;;;1.50;;
11996;SDS011;6058;48.704;9.474;2022-08-01T14:51:19;3.88;;;2.10;;
11996;SDS011;6058;48.704;9.474;2022-08-01T14:53:46;2.13;;;1.50;;
11996;SDS011;6058;48.704;9.474;2022-08-01T14:56:14;1.77;;;1.60;;
11996;SDS011;6058;48.704;9.474;2022-08-01T14:58:42;2.00;;;1.90;;
11996;SDS011;6058;48.704;9.474;2022-08-01T15:01:10;2.10;;;1.50;;
11996;SDS011;6058;48.704;9.474;2022-08-01T15:03:39;1.50;;;1.40;;
11996;SDS011;6058;48.704;9.474;2022-08-01T15:06:06;1.77;;;1.35;;
11996;SDS011;6058;48.704;9.474;2022-08-01T15:08:36;1.27;;;1.17;;
11996;SDS011;6058;48.704;9.474;2022-08-01T15:11:04;2.92;;;1.25;;
11996;SDS011;6058;48.704;9.474;2022-08-01T15:13:31;1.67;;;1.58;;
11996;SDS011;6058;48.704;9.474;2022-08-01T15:15:58;1.80;;;1.70;;
11996;SDS011;6058;48.704;9.474;2022-08-01T15:18:28;1.73;;;1.63;;
11996;SDS011;6058;48.704;9.474;2022-08-01T15:20:57;2.22;;;1.40;;
11996;SDS011;6058;48.704;9.474;2022-08-01T15:23:24;1.58;;;1.42;;